Terminal Aerodrome Forecast
Issued by NWS Wilmington, NC

Current Version | Previous Version | Graphics & Text | Print | Product List | Glossary Off
Versions: 1 2 3 4 5 6 7 8 9 10 11 12 13 14 15 16 17 18 19 20 21 22

000
FTUS42 KILM 301120
TAFLBT
TAF
KLBT 301120Z 3012/0112 18004KT P6SM SCT020
     FM301600 19007KT P6SM VCTS SCT040CB
     FM302300 20005KT P6SM FEW050 BKN250=

USA.gov is the U.S. government's official web portal to all federal, state and local government web resources and services.